Time;durP1;ratioP1;P1;durP2;ratioP2;P2;SDS_P1;SDS_P2;PMS_P1;PMS_P2;Temp;Humidity;BMP_temperature;BMP_pressure;BME280_temperature;BME280_humidity;BME280_pressure;Samples;Min_cycle;Max_cycle;Signal;HPM_P1;HPM_P2
2023/09/08 00:00:29;;;;;;;;;;;24.00;68.30;;;24.07;45.53;98851.06;4937357;28;123895;-82
2023/09/08 00:02:55;;;;;;;;;;;23.90;68.50;;;24.05;45.40;98859.97;4934305;28;114946;-82
2023/09/08 00:06:14;;;;;;;;;;;23.90;68.70;;;24.01;45.49;98854.28;4932231;28;113770;-81
2023/09/08 00:08:43;;;;;;;;;;;23.80;68.90;;;23.97;45.55;98850.66;4938493;28;123246;-81
2023/09/08 00:11:19;;;;;;;;;;;23.90;69.20;;;23.96;45.78;98856.72;4945941;28;123091;-81
2023/09/08 00:13:51;;;;;;;;;;;23.70;69.20;;;23.93;46.11;98861.13;4931466;28;114617;-82
2023/09/08 00:16:23;;;;;;;;;;;23.70;69.50;;;23.91;45.91;98854.28;4950062;28;113835;-81
2023/09/08 00:19:07;;;;;;;;;;;23.70;69.70;;;23.86;46.16;98854.66;4936620;28;125224;-82
2023/09/08 00:21:39;;;;;;;;;;;23.70;69.80;;;23.83;46.14;98852.66;4933407;28;124020;-82
2023/09/08 00:24:29;;;;;;;;;;;23.60;69.90;;;23.80;46.41;98859.91;4944785;28;114425;-83
2023/09/08 00:27:01;;;;;;;;;;;23.60;70.20;;;23.76;46.61;98862.72;4891237;28;113935;-81
2023/09/08 00:29:34;;;;;;;;;;;23.60;70.40;;;23.72;46.38;98856.28;4892692;28;124180;-82
2023/09/08 00:32:00;;;;;;;;;;;23.50;70.60;;;23.69;46.46;98859.84;4906722;28;123723;-81
2023/09/08 00:35:36;;;;;;;;;;;23.50;70.70;;;23.65;46.76;98858.25;4890140;28;114666;-82
2023/09/08 00:38:08;;;;;;;;;;;23.50;70.90;;;23.59;46.91;98852.19;4860713;28;113793;-82
2023/09/08 00:40:40;;;;;;;;;;;23.40;71.10;;;23.58;46.99;98859.81;4869218;28;124112;-82
2023/09/08 00:43:24;;;;;;;;;;;23.40;71.30;;;23.54;46.90;98855.41;4867951;28;123768;-82
2023/09/08 00:46:12;;;;;;;;;;;23.40;71.50;;;23.51;47.01;98859.81;4870826;28;115422;-83
2023/09/08 00:49:28;;;;;;;;;;;23.30;71.50;;;23.48;46.96;98857.81;4867517;28;113872;-82
2023/09/08 00:52:06;;;;;;;;;;;23.30;71.70;;;23.44;47.12;98864.63;4882158;28;125035;-83
2023/09/08 00:54:32;;;;;;;;;;;23.20;71.70;;;23.41;47.34;98859.78;4877320;28;122937;-82
2023/09/08 00:57:48;;;;;;;;;;;23.20;71.80;;;23.36;47.10;98856.13;4889357;28;114224;-82
2023/09/08 01:03:43;;;;;;;;;;;23.20;72.20;;;23.28;47.57;98851.66;4898853;28;124928;-83
2023/09/08 01:06:53;;;;;;;;;;;23.10;72.30;;;23.24;47.40;98848.03;4947521;28;122701;-82
2023/09/08 01:09:19;;;;;;;;;;;23.10;72.50;;;23.22;47.51;98856.09;4914288;28;113407;-82
2023/09/08 01:11:55;;;;;;;;;;;23.00;72.60;;;23.21;47.49;98853.66;4939453;28;113016;-82
2023/09/08 01:14:43;;;;;;;;;;;23.00;73.40;;;23.18;47.60;98851.63;4925564;28;122673;-83
2023/09/08 01:17:41;;;;;;;;;;;23.00;73.00;;;23.13;47.70;98855.63;4923780;28;123610;-83
2023/09/08 01:21:05;;;;;;;;;;;22.90;73.10;;;23.11;47.66;98852.41;4868327;28;114392;-82
2023/09/08 01:24:08;;;;;;;;;;;22.90;73.30;;;23.05;48.01;98860.44;4869477;28;113419;-82
2023/09/08 01:26:46;;;;;;;;;;;22.90;73.40;;;23.03;48.08;98859.22;4861462;28;123962;-82
2023/09/08 01:29:39;;;;;;;;;;;22.80;73.50;;;22.98;48.08;98859.59;4853019;28;122548;-83
2023/09/08 01:32:21;;;;;;;;;;;22.80;73.70;;;22.96;48.29;98856.31;4885582;28;115118;-83
2023/09/08 01:34:48;;;;;;;;;;;22.80;73.90;;;22.95;47.92;98861.16;4857240;28;113023;-83
2023/09/08 01:37:17;;;;;;;;;;;22.70;74.00;;;22.93;48.18;98863.56;4887177;28;124289;-83
2023/09/08 01:39:59;;;;;;;;;;;22.70;74.20;;;22.89;48.18;98857.06;4884984;28;123832;-83
2023/09/08 01:42:40;;;;;;;;;;;22.70;74.30;;;22.86;48.13;98861.50;4852183;28;114329;-83
2023/09/08 01:48:35;;;;;;;;;;;22.60;75.20;;;22.79;48.46;98855.03;4871416;28;125394;-83
2023/09/08 01:51:01;;;;;;;;;;;22.60;74.60;;;22.77;48.52;98846.97;4866367;28;124141;-83
2023/09/08 01:53:30;;;;;;;;;;;22.50;74.80;;;22.75;48.82;98852.16;4869373;28;114462;-83
2023/09/08 01:56:22;;;;;;;;;;;22.50;75.00;;;22.70;48.48;98850.56;4912145;28;113750;-83
2023/09/08 01:59:15;;;;;;;;;;;22.50;75.30;;;22.65;48.86;98852.94;4938079;28;124257;-82
2023/09/08 02:01:41;;;;;;;;;;;22.40;75.40;;;22.64;48.97;98852.09;4895744;28;123180;-83
2023/09/08 02:04:10;;;;;;;;;;;22.40;75.60;;;22.63;49.02;98852.50;4912034;28;113898;-83
2023/09/08 02:06:41;;;;;;;;;;;22.40;75.80;;;22.62;49.33;98850.88;4923493;28;113570;-82
2023/09/08 02:09:47;;;;;;;;;;;22.40;76.10;;;22.57;49.23;98851.25;4920795;28;124708;-83
2023/09/08 02:12:17;;;;;;;;;;;22.40;76.30;;;22.55;49.02;98848.03;4916487;28;123605;-84
2023/09/08 02:14:52;;;;;;;;;;;22.30;76.40;;;22.53;49.31;98853.25;4909478;28;113178;-83
2023/09/08 02:17:18;;;;;;;;;;;22.30;76.60;;;22.50;49.34;98852.81;4929899;28;114104;-82
2023/09/08 02:19:56;;;;;;;;;;;22.30;76.70;;;22.47;49.20;98847.97;4908487;28;124938;-83
2023/09/08 02:22:22;;;;;;;;;;;22.20;76.80;;;22.46;49.33;98840.75;4912406;28;123775;-83
2023/09/08 02:24:49;;;;;;;;;;;22.20;76.90;;;22.45;49.46;98843.94;4920919;28;114302;-83
2023/09/08 02:27:15;;;;;;;;;;;22.20;77.00;;;22.43;49.28;98835.88;4913360;28;114074;-84
2023/09/08 02:29:41;;;;;;;;;;;22.20;77.00;;;22.39;49.25;98840.66;4926255;28;123683;-83
2023/09/08 02:32:10;;;;;;;;;;;22.20;77.10;;;22.35;49.48;98845.44;4926914;28;123749;-83
2023/09/08 02:34:53;;;;;;;;;;;22.10;77.20;;;22.30;49.73;98845.00;4933455;28;114367;-83
2023/09/08 02:37:25;;;;;;;;;;;22.10;77.40;;;22.22;49.88;98841.34;4919258;28;114953;-84
2023/09/08 02:40:27;;;;;;;;;;;22.00;77.60;;;22.16;50.14;98837.22;4917497;28;124477;-83
2023/09/08 02:43:08;;;;;;;;;;;22.00;78.00;;;22.11;50.13;98840.41;4916482;28;124022;-83
2023/09/08 02:45:53;;;;;;;;;;;21.90;78.20;;;22.09;50.01;98842.81;4931306;28;114915;-83
2023/09/08 02:48:35;;;;;;;;;;;21.90;78.40;;;22.09;50.49;98840.00;4929253;28;113685;-83
2023/09/08 02:51:01;;;;;;;;;;;21.90;78.70;;;22.07;50.24;98840.38;4924234;28;126833;-83
2023/09/08 02:53:36;;;;;;;;;;;21.80;78.90;;;22.07;50.54;98843.19;4909761;28;123839;-83
2023/09/08 02:56:03;;;;;;;;;;;21.80;79.10;;;22.08;50.12;98838.38;4925402;28;113155;-83
2023/09/08 02:58:42;;;;;;;;;;;21.80;79.30;;;22.06;50.47;98833.97;4925571;28;113854;-83
2023/09/08 03:01:20;;;;;;;;;;;21.80;79.40;;;22.06;50.31;98844.41;4913237;28;124182;-83
2023/09/08 03:03:47;;;;;;;;;;;21.80;79.60;;;22.03;50.40;98840.38;4936976;28;124090;-83
2023/09/08 03:06:17;;;;;;;;;;;21.70;79.70;;;22.04;50.34;98844.78;4918331;28;114521;-83
2023/09/08 03:08:43;;;;;;;;;;;21.70;79.80;;;22.03;50.78;98845.16;4946567;28;113943;-83
2023/09/08 03:11:10;;;;;;;;;;;21.70;80.60;;;22.02;50.50;98852.78;4930715;28;124093;-83
2023/09/08 03:13:41;;;;;;;;;;;21.70;80.00;;;21.99;50.46;98847.94;4905511;28;122943;-83
2023/09/08 03:16:16;;;;;;;;;;;21.70;80.10;;;21.97;50.83;98850.34;4920606;28;113888;-83
2023/09/08 03:18:49;;;;;;;;;;;21.70;80.30;;;21.96;50.80;98847.94;4930368;28;112763;-83
2023/09/08 03:21:18;;;;;;;;;;;21.70;80.40;;;21.93;50.68;98852.31;4914951;28;123296;-82
2023/09/08 03:24:28;;;;;;;;;;;21.60;80.60;;;21.85;50.84;98845.00;4911524;28;124891;-83
2023/09/08 03:30:17;;;;;;;;;;;21.60;80.80;;;21.73;51.32;98848.09;4922439;28;115512;-83
2023/09/08 03:36:09;;;;;;;;;;;21.50;81.00;;;21.62;51.51;98839.53;4939076;28;125384;-83
2023/09/08 03:39:00;;;;;;;;;;;21.40;81.20;;;21.59;51.61;98843.13;4939321;28;114693;-83
2023/09/08 03:41:45;;;;;;;;;;;21.40;81.60;;;21.57;51.67;98846.34;4897418;28;114445;-83
2023/09/08 03:44:11;;;;;;;;;;;21.40;81.80;;;21.59;51.46;98840.31;4925250;28;123925;-83
2023/09/08 03:46:52;;;;;;;;;;;21.40;82.00;;;21.58;51.66;98847.16;4935000;28;124684;-83
2023/09/08 03:49:40;;;;;;;;;;;21.30;82.10;;;21.55;51.36;98843.09;4940745;28;114403;-82
2023/09/08 03:52:12;;;;;;;;;;;21.30;82.30;;;21.57;51.51;98845.50;4920159;28;113675;-83
2023/09/08 03:54:41;;;;;;;;;;;21.30;82.50;;;21.55;51.88;98848.72;4923911;28;124947;-82
2023/09/08 03:57:13;;;;;;;;;;;21.30;82.60;;;21.55;51.92;98843.09;4923316;28;124084;-83
2023/09/08 03:59:45;;;;;;;;;;;21.30;82.80;;;21.52;51.96;98843.88;4917033;28;113608;-83
2023/09/08 04:02:11;;;;;;;;;;;21.30;82.90;;;21.50;52.09;98849.06;4940514;28;113914;-82
2023/09/08 04:08:04;;;;;;;;;;;21.20;83.20;;;21.44;51.81;98853.44;4932255;28;124797;-83
2023/09/08 04:11:01;;;;;;;;;;;21.20;83.40;;;21.42;51.91;98861.44;4929806;28;114591;-84
2023/09/08 04:13:27;;;;;;;;;;;21.20;83.60;;;21.41;51.82;98859.78;4912393;28;113658;-83
2023/09/08 04:15:59;;;;;;;;;;;21.20;83.70;;;21.41;51.88;98865.41;4922918;28;124084;-83
2023/09/08 04:18:35;;;;;;;;;;;21.20;83.90;;;21.39;52.14;98862.19;4929894;28;123742;-83
2023/09/08 04:21:13;;;;;;;;;;;21.10;84.00;;;21.38;52.03;98860.56;4896281;28;114353;-84
2023/09/08 04:24:06;;;;;;;;;;;21.10;84.10;;;21.33;52.08;98861.69;4926719;28;113461;-83
2023/09/08 04:30:13;;;;;;;;;;;21.10;84.40;;;21.26;52.18;98864.41;4917824;28;124736;-82
2023/09/08 04:33:24;;;;;;;;;;;21.00;84.40;;;21.25;52.16;98865.63;4928374;28;114676;-83
2023/09/08 04:35:53;;;;;;;;;;;21.00;84.60;;;21.22;52.48;98862.75;4888813;28;114274;-83
2023/09/08 04:38:28;;;;;;;;;;;21.00;84.80;;;21.19;52.56;98864.31;4885128;28;124063;-83
2023/09/08 04:40:55;;;;;;;;;;;21.00;85.00;;;21.18;52.97;98865.53;4891862;28;124262;-83
2023/09/08 04:43:39;;;;;;;;;;;20.90;85.80;;;21.14;52.78;98867.47;4881555;28;114557;-83
2023/09/08 04:46:14;;;;;;;;;;;20.90;85.20;;;21.14;52.81;98876.72;4888976;28;113819;-82
2023/09/08 04:48:50;;;;;;;;;;;20.90;85.30;;;21.12;52.47;98875.47;4885817;28;124722;-83
2023/09/08 04:51:53;;;;;;;;;;;20.90;85.40;;;21.10;52.65;98873.03;4907060;28;123941;-83
2023/09/08 04:54:44;;;;;;;;;;;20.90;85.50;;;21.08;52.70;98872.59;4895026;28;114041;-82
2023/09/08 04:57:19;;;;;;;;;;;20.90;85.60;;;21.09;52.95;98873.41;4903695;28;113364;-82
2023/09/08 04:59:54;;;;;;;;;;;20.80;85.70;;;21.07;52.65;98867.38;4904064;28;124372;-83
2023/09/08 05:02:20;;;;;;;;;;;20.80;85.70;;;21.04;52.83;98879.38;4909175;28;123996;-83
2023/09/08 05:04:59;;;;;;;;;;;20.80;86.00;;;20.96;53.40;98884.09;4907043;28;114975;-82
2023/09/08 05:07:26;;;;;;;;;;;20.80;86.50;;;20.93;53.15;98882.06;4895127;28;113202;-82
2023/09/08 05:10:16;;;;;;;;;;;20.80;86.50;;;20.91;53.52;98879.63;4907646;28;124114;-83
2023/09/08 05:13:09;;;;;;;;;;;20.70;86.60;;;20.91;53.27;98881.63;4920874;28;124127;-82
2023/09/08 05:15:59;;;;;;;;;;;20.70;87.00;;;20.92;53.64;98880.41;4889642;28;115137;-82
2023/09/08 05:18:25;;;;;;;;;;;20.70;87.00;;;20.93;53.65;98880.06;4877434;28;114662;-83
2023/09/08 05:21:30;;;;;;;;;;;20.70;87.80;;;20.90;53.61;98871.56;4889636;28;126054;-82
2023/09/08 05:24:02;;;;;;;;;;;20.30;87.10;;;20.88;53.86;98880.38;4872909;28;123788;-82
2023/09/08 05:26:28;;;;;;;;;;;20.60;87.40;;;20.86;53.97;98881.94;4881399;28;113681;-82
2023/09/08 05:29:48;;;;;;;;;;;20.60;87.50;;;20.82;53.79;98886.69;4890134;28;113157;-82
2023/09/08 05:32:14;;;;;;;;;;;20.60;87.60;;;20.78;54.01;98888.66;4890642;28;124571;-83
2023/09/08 05:38:13;;;;;;;;;;;20.60;88.10;;;20.72;54.12;98885.34;4891865;28;114902;-82
2023/09/08 05:40:42;;;;;;;;;;;20.50;87.80;;;20.74;53.90;98892.22;4871821;28;113735;-82
2023/09/08 05:43:17;;;;;;;;;;;20.50;87.80;;;20.77;54.02;98893.47;4881454;28;124572;-82
2023/09/08 05:46:06;;;;;;;;;;;20.50;88.20;;;20.79;53.72;98893.06;4869550;28;124080;-83
2023/09/08 05:48:48;;;;;;;;;;;20.50;88.30;;;20.83;53.62;98891.13;4875212;28;113682;-83
2023/09/08 05:51:57;;;;;;;;;;;20.50;88.20;;;20.87;53.79;98898.41;4875063;28;113045;-83
2023/09/08 05:54:24;;;;;;;;;;;20.60;88.40;;;20.91;53.94;98890.84;4935540;28;123881;-82
2023/09/08 05:57:06;;;;;;;;;;;20.60;88.40;;;20.99;53.48;98893.75;4936319;28;123022;-82
2023/09/08 05:59:44;;;;;;;;;;;20.60;88.60;;;21.05;53.30;98898.66;4930835;28;113598;-82
2023/09/08 06:02:16;;;;;;;;;;;20.70;88.50;;;21.11;53.43;98891.50;4974825;28;113795;-82
2023/09/08 06:05:13;;;;;;;;;;;20.70;88.40;;;21.18;53.04;98893.63;4957873;28;124387;-82
2023/09/08 06:08:20;;;;;;;;;;;20.80;88.50;;;21.27;52.80;98899.75;4933127;28;123754;-82
2023/09/08 06:11:09;;;;;;;;;;;20.80;88.40;;;21.33;52.70;98892.63;4937139;28;114760;-81
2023/09/08 06:14:06;;;;;;;;;;;20.90;88.30;;;21.40;52.54;98891.91;4929546;28;115258;-83
2023/09/08 06:16:32;;;;;;;;;;;20.90;88.10;;;21.51;52.46;98904.09;4939625;28;123673;-82
2023/09/08 06:19:03;;;;;;;;;;;21.00;88.00;;;21.58;52.47;98892.94;4935972;28;123870;-82
2023/09/08 06:22:23;;;;;;;;;;;21.10;87.90;;;21.61;52.29;98892.16;4938929;28;114616;-82
2023/09/08 06:25:23;;;;;;;;;;;21.10;87.80;;;21.59;52.04;98882.50;4919743;28;112674;-82
2023/09/08 06:31:38;;;;;;;;;;;21.20;87.60;;;21.67;52.26;98886.19;4870845;28;124665;-82
2023/09/08 06:34:07;;;;;;;;;;;21.20;87.80;;;21.73;52.07;98893.91;4852823;28;114347;-82
2023/09/08 06:36:45;;;;;;;;;;;21.20;87.70;;;21.81;51.83;98898.41;4855854;28;113773;-82
2023/09/08 06:42:00;;;;;;;;;;;21.30;87.70;;;21.89;51.87;98895.66;4862505;28;123208;-82
2023/09/08 06:44:27;;;;;;;;;;;21.40;87.70;;;21.92;51.78;98901.31;4872103;28;114096;-82
2023/09/08 06:46:59;;;;;;;;;;;21.40;87.70;;;21.91;51.77;98893.28;4873767;28;112734;-82
2023/09/08 06:49:34;;;;;;;;;;;21.40;87.80;;;21.89;51.88;98885.22;4854850;28;124380;-82
2023/09/08 06:52:01;;;;;;;;;;;21.40;87.80;;;21.88;52.23;98897.69;4853967;28;122701;-83
2023/09/08 06:55:09;;;;;;;;;;;21.30;88.00;;;21.91;51.77;98884.84;4873866;28;114797;-82
2023/09/08 06:57:38;;;;;;;;;;;21.40;88.00;;;22.01;51.81;98886.97;4853937;28;113998;-81
2023/09/08 07:00:43;;;;;;;;;;;21.50;87.90;;;22.10;51.80;98895.88;4870746;28;124135;-82
2023/09/08 07:03:19;;;;;;;;;;;21.60;87.90;;;22.15;51.66;98898.34;4870267;28;123668;-82
2023/09/08 07:05:45;;;;;;;;;;;21.60;87.80;;;22.20;51.43;98894.41;4870848;28;115385;-82
2023/09/08 07:08:20;;;;;;;;;;;21.60;87.70;;;22.23;51.11;98893.63;4921966;28;114505;-82
2023/09/08 07:14:23;;;;;;;;;;;21.70;87.80;;;22.23;51.26;98894.44;4880190;28;123817;-82
2023/09/08 07:17:17;;;;;;;;;;;21.70;87.80;;;22.26;51.71;98904.09;4876804;28;113313;-82
2023/09/08 07:23:17;;;;;;;;;;;21.70;88.00;;;22.28;51.44;98896.09;4867458;28;125116;-82
2023/09/08 07:25:55;;;;;;;;;;;21.70;88.00;;;22.35;51.61;98900.97;4868951;28;123472;-81
2023/09/08 07:28:22;;;;;;;;;;;21.80;88.00;;;22.46;51.29;98884.94;4852102;28;114263;-81
2023/09/08 07:31:35;;;;;;;;;;;21.90;88.00;;;22.59;51.09;98885.47;4871305;28;113695;-81
2023/09/08 07:34:04;;;;;;;;;;;22.00;87.80;;;22.76;51.04;98886.81;4835045;29;123196;-82
2023/09/08 07:36:31;;;;;;;;;;;22.10;87.80;;;22.85;50.92;98888.06;4835985;29;124388;-82
2023/09/08 07:39:12;;;;;;;;;;;22.20;87.80;;;22.92;50.84;98890.94;4837427;29;114618;-81
2023/09/08 07:45:12;;;;;;;;;;;22.40;87.80;;;23.07;50.45;98896.66;4875696;28;124940;-80
2023/09/08 07:47:43;;;;;;;;;;;22.40;87.50;;;23.11;50.81;98883.41;4836008;29;122742;-80
2023/09/08 07:50:34;;;;;;;;;;;22.50;87.60;;;23.16;50.53;98883.03;4875724;28;113643;-81
2023/09/08 07:53:06;;;;;;;;;;;22.60;87.40;;;23.28;50.24;98885.50;4945640;28;113390;-80
2023/09/08 07:55:33;;;;;;;;;;;22.60;87.30;;;23.37;50.56;98879.50;4949060;28;124245;-80
2023/09/08 07:58:12;;;;;;;;;;;22.80;87.30;;;23.44;50.22;98884.38;4949506;28;124107;-80
2023/09/08 08:00:49;;;;;;;;;;;22.90;87.20;;;23.49;50.07;98883.97;4922096;28;114357;-80
2023/09/08 08:03:22;;;;;;;;;;;22.90;87.00;;;23.53;50.05;98877.13;4937310;28;114781;-79
2023/09/08 08:06:16;;;;;;;;;;;22.90;87.00;;;23.62;50.17;98875.97;4931569;28;124340;-80
2023/09/08 08:08:49;;;;;;;;;;;23.00;87.10;;;23.67;50.09;98887.66;4957202;28;123755;-80
2023/09/08 08:11:27;;;;;;;;;;;23.00;87.10;;;23.70;49.71;98886.06;4958894;28;114490;-80
2023/09/08 08:14:03;;;;;;;;;;;23.00;87.10;;;23.73;49.93;98877.63;4933960;28;113845;-79
2023/09/08 08:16:58;;;;;;;;;;;23.10;87.10;;;23.78;49.83;98879.25;4927475;28;123926;-80
2023/09/08 08:19:27;;;;;;;;;;;23.20;87.00;;;23.87;49.74;98882.50;4936066;28;123843;-80
2023/09/08 08:22:00;;;;;;;;;;;23.30;87.00;;;23.93;49.88;98880.09;4947542;28;115472;-81
2023/09/08 08:24:29;;;;;;;;;;;23.30;86.90;;;24.01;49.70;98878.88;4949972;28;112930;-80
2023/09/08 08:26:55;;;;;;;;;;;23.40;86.90;;;24.09;49.80;98877.69;4946980;28;124449;-80
2023/09/08 08:30:03;;;;;;;;;;;23.50;86.80;;;24.12;49.64;98882.53;4930978;28;123218;-80
2023/09/08 08:32:29;;;;;;;;;;;23.50;86.80;;;24.20;49.73;98872.06;4934736;28;114700;-80
2023/09/08 08:38:16;;;;;;;;;;;23.70;86.80;;;24.36;49.67;98874.47;4933595;28;125175;-80
2023/09/08 08:41:05;;;;;;;;;;;23.80;86.60;;;24.42;49.78;98875.69;4932148;28;124034;-80
2023/09/08 08:43:41;;;;;;;;;;;23.80;86.90;;;24.49;49.63;98875.72;4934479;28;114462;-80
2023/09/08 08:46:16;;;;;;;;;;;23.90;86.90;;;24.58;49.56;98864.81;4935010;28;113886;-82
2023/09/08 08:49:24;;;;;;;;;;;24.00;86.80;;;24.68;49.11;98869.63;4936298;28;124876;-80
2023/09/08 08:52:08;;;;;;;;;;;24.10;86.60;;;24.80;49.22;98865.59;4907581;28;123023;-82
2023/09/08 08:55:01;;;;;;;;;;;24.20;86.50;;;24.87;49.06;98864.75;4891066;28;115112;-81
2023/09/08 08:57:28;;;;;;;;;;;24.30;86.40;;;24.94;48.98;98859.09;4894745;28;114209;-81
2023/09/08 09:00:21;;;;;;;;;;;24.30;86.20;;;25.00;48.94;98865.13;4909291;28;123535;-81
2023/09/08 09:02:56;;;;;;;;;;;24.40;86.20;;;25.05;48.69;98859.06;4907952;28;124301;-81
2023/09/08 09:05:37;;;;;;;;;;;24.50;86.20;;;25.11;48.49;98858.22;4888706;28;114324;-81
2023/09/08 09:08:10;;;;;;;;;;;24.50;86.10;;;25.19;48.84;98859.03;4909411;28;114502;-81
2023/09/08 09:10:37;;;;;;;;;;;24.60;86.00;;;25.28;48.71;98856.59;4882162;28;124053;-82
2023/09/08 09:13:17;;;;;;;;;;;24.70;85.90;;;25.34;48.64;98854.16;4905278;28;124186;-81
2023/09/08 09:19:01;;;;;;;;;;;24.80;85.50;;;25.47;48.04;98849.63;4886689;28;114342;-81
2023/09/08 09:21:46;;;;;;;;;;;24.90;85.60;;;25.51;48.14;98855.28;4896977;28;124290;-81
2023/09/08 09:24:22;;;;;;;;;;;25.00;85.60;;;25.59;48.12;98854.00;4907612;28;123165;-81
2023/09/08 09:26:52;;;;;;;;;;;25.00;85.40;;;25.65;47.95;98860.84;4894698;28;114629;-81
2023/09/08 09:30:13;;;;;;;;;;;25.10;85.40;;;25.67;48.02;98858.41;4919838;28;113820;-81
2023/09/08 09:32:49;;;;;;;;;;;25.20;85.20;;;25.76;48.30;98858.78;4874015;28;124898;-81
2023/09/08 09:35:18;;;;;;;;;;;25.20;85.20;;;25.84;47.72;98853.09;4942270;28;123798;-81
2023/09/08 09:37:44;;;;;;;;;;;25.30;85.10;;;25.89;47.63;98861.94;4944810;28;115108;-81
2023/09/08 09:40:13;;;;;;;;;;;25.40;84.80;;;25.95;47.95;98863.13;4929571;28;113579;-81
2023/09/08 09:42:50;;;;;;;;;;;25.40;84.70;;;25.98;47.15;98865.13;4929456;28;124383;-80
2023/09/08 09:45:19;;;;;;;;;;;25.40;84.40;;;26.04;47.05;98850.53;4933459;28;123724;-80
2023/09/08 09:48:13;;;;;;;;;;;25.50;84.30;;;26.08;47.52;98856.97;4917613;28;115299;-82
2023/09/08 09:50:51;;;;;;;;;;;25.60;84.10;;;26.13;47.17;98856.53;4943023;28;114845;-81
2023/09/08 09:54:00;;;;;;;;;;;25.60;84.00;;;26.18;46.82;98854.06;4944180;28;124252;-80
2023/09/08 09:56:26;;;;;;;;;;;25.70;83.80;;;26.28;47.23;98849.53;4940389;28;124377;-81
2023/09/08 09:58:53;;;;;;;;;;;25.70;83.70;;;26.33;46.49;98851.91;4921064;28;115097;-81
2023/09/08 10:01:42;;;;;;;;;;;25.80;83.20;;;26.32;46.25;98850.28;4931076;28;113736;-81
2023/09/08 10:04:08;;;;;;;;;;;25.80;83.00;;;26.38;46.68;98844.97;4904986;28;123554;-81
2023/09/08 10:07:11;;;;;;;;;;;25.90;83.00;;;26.44;46.12;98840.50;4950866;28;123164;-81
2023/09/08 10:10:22;;;;;;;;;;;26.00;82.90;;;26.52;46.56;98841.25;4937853;28;113511;-80
2023/09/08 10:13:15;;;;;;;;;;;26.00;82.80;;;26.62;45.49;98840.34;4883675;28;113755;-81
2023/09/08 10:15:44;;;;;;;;;;;26.10;82.40;;;26.68;45.75;98835.84;4877175;28;124396;-81
2023/09/08 10:18:19;;;;;;;;;;;26.10;81.90;;;26.75;45.66;98835.75;4891753;28;124373;-80
2023/09/08 10:20:52;;;;;;;;;;;26.20;81.80;;;26.85;45.27;98826.31;4883265;28;114561;-81
2023/09/08 10:27:43;;;;;;;;;;;26.40;81.20;;;27.00;44.43;98820.47;4861314;28;124849;-80
2023/09/08 10:30:16;;;;;;;;;;;26.50;80.70;;;27.08;44.17;98822.84;4823484;29;124044;-80
2023/09/08 10:33:24;;;;;;;;;;;26.60;80.20;;;27.16;44.06;98817.06;4808988;29;113426;-81
2023/09/08 10:35:53;;;;;;;;;;;26.60;79.80;;;27.28;44.03;98825.84;4796089;29;112891;-80
2023/09/08 10:38:50;;;;;;;;;;;26.70;79.60;;;27.39;43.50;98813.56;4793316;29;124551;-80
2023/09/08 10:41:22;;;;;;;;;;;26.80;79.10;;;27.48;43.44;98813.81;4750128;29;124190;-80
2023/09/08 10:44:14;;;;;;;;;;;26.90;78.70;;;27.56;43.23;98806.81;4763057;29;115568;-80
2023/09/08 10:46:44;;;;;;;;;;;27.10;78.60;;;27.69;43.41;98812.72;4726087;29;114880;-80
2023/09/08 10:49:14;;;;;;;;;;;27.10;78.30;;;27.80;43.02;98815.41;4744997;29;124048;-80
2023/09/08 10:51:40;;;;;;;;;;;27.20;78.10;;;27.88;42.75;98811.25;4775185;29;123678;-80
2023/09/08 10:54:06;;;;;;;;;;;27.30;77.60;;;27.95;42.38;98799.78;4762939;29;114984;-81
2023/09/08 10:57:34;;;;;;;;;;;27.40;77.10;;;28.00;42.24;98802.13;4764070;29;113861;-81
2023/09/08 11:00:12;;;;;;;;;;;27.50;77.00;;;28.10;42.32;98801.16;4766302;29;123945;-80
2023/09/08 11:03:16;;;;;;;;;;;27.60;76.40;;;28.19;41.92;98809.94;4783938;29;124024;-81
2023/09/08 11:05:48;;;;;;;;;;;27.60;76.20;;;28.32;41.38;98804.44;4767033;29;113868;-80
2023/09/08 11:12:08;;;;;;;;;;;27.90;75.60;;;28.59;41.08;98810.06;4804071;29;125509;-81
2023/09/08 11:14:37;;;;;;;;;;;28.00;75.00;;;28.72;40.52;98796.03;4807428;29;124626;-81
2023/09/08 11:20:45;;;;;;;;;;;28.20;73.70;;;28.99;40.14;98804.44;4840029;28;114439;-80
2023/09/08 11:23:24;;;;;;;;;;;28.40;73.50;;;29.14;40.35;98798.47;4849164;29;124728;-80
2023/09/08 11:26:45;;;;;;;;;;;28.50;73.60;;;29.27;39.67;98797.34;4852710;29;124598;-80
2023/09/08 11:29:11;;;;;;;;;;;28.60;73.20;;;29.46;39.71;98792.88;4845132;28;113606;-80
2023/09/08 11:31:38;;;;;;;;;;;28.80;72.70;;;29.61;39.04;98804.75;4847882;28;112777;-81
2023/09/08 11:34:13;;;;;;;;;;;28.90;71.80;;;29.75;38.97;98792.25;4840365;29;124530;-80
2023/09/08 11:36:52;;;;;;;;;;;29.10;71.90;;;29.88;38.56;98796.00;4868993;28;123351;-81
2023/09/08 11:39:59;;;;;;;;;;;29.20;71.60;;;29.99;38.35;98801.44;4810452;29;114482;-80
2023/09/08 11:43:36;;;;;;;;;;;29.30;71.00;;;30.09;38.51;98799.56;4846284;28;114920;-80
2023/09/08 11:46:17;;;;;;;;;;;29.50;70.80;;;30.26;38.16;98792.66;4874409;28;126096;-80
2023/09/08 11:48:44;;;;;;;;;;;29.60;70.50;;;30.41;37.49;98789.41;4864481;28;124512;-80
2023/09/08 11:51:13;;;;;;;;;;;29.80;68.90;;;30.50;37.25;98792.47;4884436;28;114403;-80
2023/09/08 11:57:12;;;;;;;;;;;30.00;68.50;;;30.83;36.71;98795.25;4899321;28;124640;-80
2023/09/08 12:00:17;;;;;;;;;;;30.20;68.00;;;30.99;37.03;98793.13;4894036;28;123861;-80
2023/09/08 12:03:12;;;;;;;;;;;30.00;67.70;;;31.19;36.04;98801.56;4835148;29;114655;-80
2023/09/08 12:05:42;;;;;;;;;;;30.40;67.40;;;31.30;35.89;98794.69;4820307;29;113702;-80
2023/09/08 12:08:19;;;;;;;;;;;30.50;66.50;;;31.35;35.86;98789.22;4804865;29;123330;-80
2023/09/08 12:10:45;;;;;;;;;;;30.70;66.00;;;31.43;35.98;98781.28;4811961;29;123411;-80
2023/09/08 12:13:13;;;;;;;;;;;30.80;65.90;;;31.54;35.45;98778.88;4820867;29;114468;-80
2023/09/08 12:15:41;;;;;;;;;;;30.90;64.80;;;31.60;34.67;98779.94;4810298;29;113489;-81
2023/09/08 12:18:16;;;;;;;;;;;31.00;64.20;;;31.65;34.63;98782.22;4834701;29;124138;-80
2023/09/08 12:21:10;;;;;;;;;;;31.00;63.40;;;31.72;34.15;98783.25;4834351;29;123173;-81
2023/09/08 12:24:07;;;;;;;;;;;31.10;62.80;;;31.82;34.49;98777.19;4842980;28;114482;-81
2023/09/08 12:26:36;;;;;;;;;;;31.20;63.10;;;31.94;33.96;98787.03;4844852;28;113133;-80
2023/09/08 12:29:28;;;;;;;;;;;31.30;62.40;;;32.03;33.79;98781.44;4857121;28;124616;-80
2023/09/08 12:32:03;;;;;;;;;;;31.40;62.10;;;32.20;33.75;98772.72;4847755;28;123900;-80
2023/09/08 12:34:38;;;;;;;;;;;31.50;61.90;;;32.32;33.43;98777.59;4849393;28;115484;-80
2023/09/08 12:37:07;;;;;;;;;;;31.60;61.00;;;32.39;32.83;98771.63;4857993;28;114686;-80
2023/09/08 12:39:39;;;;;;;;;;;31.70;60.60;;;32.44;32.55;98762.47;4884738;28;124467;-80
2023/09/08 12:42:12;;;;;;;;;;;31.70;60.00;;;32.50;32.70;98766.34;4942132;28;123700;-80
2023/09/08 12:44:47;;;;;;;;;;;31.80;60.10;;;32.60;32.71;98760.72;4955174;28;114526;-80
2023/09/08 12:47:26;;;;;;;;;;;31.90;59.90;;;32.73;32.62;98758.63;4948459;28;113024;-80
2023/09/08 12:50:05;;;;;;;;;;;32.00;59.60;;;32.86;32.71;98756.50;4919507;28;124525;-81
2023/09/08 12:52:57;;;;;;;;;;;32.20;59.60;;;33.00;31.80;98758.84;4937275;28;123786;-80
2023/09/08 12:55:46;;;;;;;;;;;32.30;58.90;;;33.00;31.95;98758.84;4940264;28;113767;-81
2023/09/08 12:58:19;;;;;;;;;;;32.40;58.50;;;33.09;31.69;98748.72;4916937;28;112973;-81
2023/09/08 13:00:54;;;;;;;;;;;32.40;58.20;;;33.16;31.36;98752.09;4947556;28;123311;-81
2023/09/08 13:04:07;;;;;;;;;;;32.40;57.40;;;33.26;31.42;98749.28;4916515;28;124684;-81
2023/09/08 13:06:34;;;;;;;;;;;32.50;57.60;;;33.34;30.90;98739.97;4871850;28;115028;-80
2023/09/08 13:09:08;;;;;;;;;;;32.70;56.50;;;33.40;30.83;98740.16;4855363;28;113049;-81